createdAt,value
2024-04-16T00:06:10.362Z,16.4900
2024-04-16T00:16:30.308Z,16.4869
2024-04-16T00:26:50.999Z,16.4742
2024-04-16T00:36:59.008Z,16.4705
2024-04-16T00:47:07.421Z,16.4623
2024-04-16T00:57:28.826Z,16.4571
2024-04-16T01:07:49.774Z,16.4502
2024-04-16T01:18:11.095Z,16.4473
2024-04-16T01:28:18.677Z,16.4295
2024-04-16T01:38:28.050Z,16.4036
2024-04-16T01:48:36.206Z,16.3705
2024-04-16T01:58:45.437Z,16.3370
2024-04-16T02:08:53.474Z,16.3377
2024-04-16T02:19:14.952Z,16.3647
2024-04-16T02:29:37.723Z,16.4020
2024-04-16T02:39:45.334Z,16.4661
2024-04-16T02:50:06.525Z,16.5271
2024-04-16T03:00:16.392Z,16.5927
2024-04-16T03:10:24.712Z,16.6530
2024-04-16T03:20:45.885Z,16.7247
2024-04-16T03:30:54.992Z,16.8161
2024-04-16T03:41:16.577Z,16.9273
2024-04-16T03:51:38.415Z,17.0771
2024-04-16T04:01:46.395Z,17.2509
2024-04-16T04:12:07.759Z,17.4198
2024-04-16T04:22:16.148Z,17.5855
2024-04-16T04:32:39.344Z,17.7471
2024-04-16T04:42:47.629Z,17.9084
2024-04-16T04:52:55.196Z,18.1184
2024-04-16T05:03:05.361Z,18.4480
2024-04-16T05:13:13.597Z,18.8793
2024-04-16T05:23:22.315Z,19.3830
2024-04-16T05:33:34.778Z,19.9248
2024-04-16T05:43:43.271Z,20.3473
2024-04-16T05:53:51.988Z,20.7098
2024-04-16T06:04:00.214Z,21.0084
2024-04-16T06:14:08.322Z,21.2377
2024-04-16T06:24:17.054Z,21.4366
2024-04-16T06:34:25.625Z,21.6023
2024-04-16T06:44:34.675Z,21.7411
2024-04-16T06:54:43.473Z,21.8411
2024-04-16T07:05:04.782Z,21.9273
2024-04-16T07:15:12.756Z,22.0002
2024-04-16T07:25:34.386Z,22.0524
2024-04-16T07:35:57.811Z,22.0873
2024-04-16T07:46:06.118Z,22.1145
2024-04-16T07:56:26.766Z,22.1644
2024-04-16T08:06:35.310Z,22.2023
2024-04-16T08:16:56.431Z,22.2044
2024-04-16T08:27:16.641Z,22.1967
2024-04-16T08:37:37.064Z,22.1916
2024-04-16T08:47:57.267Z,22.1796
2024-04-16T08:58:05.731Z,22.1448
2024-04-16T09:08:26.099Z,22.1111
2024-04-16T09:18:47.731Z,22.0776
2024-04-16T09:28:55.487Z,22.0627
2024-04-16T09:39:17.421Z,22.0504
2024-04-16T09:49:45.212Z,22.0149
2024-04-16T09:59:49.839Z,22.0007
2024-04-16T10:10:09.780Z,21.9520
2024-04-16T10:20:30.382Z,21.9573
2024-04-16T10:30:51.652Z,21.9224
2024-04-16T10:41:12.351Z,21.8749
2024-04-16T10:51:31.002Z,21.8413
2024-04-16T11:01:51.312Z,21.8280
2024-04-16T11:12:09.559Z,21.7960
2024-04-16T11:22:28.571Z,21.7649
2024-04-16T11:32:47.238Z,21.7291
2024-04-16T11:43:06.394Z,21.6940
2024-04-16T11:53:16.730Z,21.6702
2024-04-16T12:03:35.583Z,21.6278
2024-04-16T12:13:54.437Z,21.5940
2024-04-16T12:24:13.515Z,21.5476
2024-04-16T12:34:32.504Z,21.5080
2024-04-16T12:44:50.852Z,21.4636
2024-04-16T12:55:10.095Z,21.4153
2024-04-16T13:05:28.716Z,21.3791
2024-04-16T13:15:47.204Z,21.3369
2024-04-16T13:26:05.566Z,21.2933
2024-04-16T13:36:23.818Z,21.2460
2024-04-16T13:46:43.313Z,21.1998
2024-04-16T13:57:01.879Z,21.1389
2024-04-16T14:07:20.021Z,21.1151
2024-04-16T14:17:39.256Z,21.0660
2024-04-16T14:27:58.030Z,21.0180
2024-04-16T14:38:16.594Z,20.9707
2024-04-16T14:48:35.833Z,20.9298
2024-04-16T14:58:44.173Z,20.8991
2024-04-16T15:08:52.867Z,20.8730
2024-04-16T15:19:13.086Z,20.8522
2024-04-16T15:29:31.562Z,20.8144
2024-04-16T15:39:42.729Z,20.7834
2024-04-16T15:50:01.181Z,20.7438
2024-04-16T16:00:19.657Z,20.7096
2024-04-16T16:10:40.102Z,20.6764
2024-04-16T16:21:01.420Z,20.6438
2024-04-16T16:31:23.110Z,20.6089
2024-04-16T16:41:43.763Z,20.5918
2024-04-16T16:52:04.402Z,20.5636
2024-04-16T17:02:13.082Z,20.5411
2024-04-16T17:12:22.992Z,20.5209
2024-04-16T17:22:30.730Z,20.4957
2024-04-16T17:32:39.399Z,20.4743
2024-04-16T17:42:49.008Z,20.4609
2024-04-16T17:52:57.982Z,20.4380
2024-04-16T18:03:12.088Z,20.4123
2024-04-16T18:13:20.597Z,20.3573
2024-04-16T18:23:29.063Z,20.3257
2024-04-16T18:33:40.554Z,20.3782
2024-04-16T18:43:49.430Z,20.6025
2024-04-16T18:54:11.966Z,21.0636
2024-04-16T19:04:21.170Z,21.7386
2024-04-16T19:14:33.570Z,22.6811
2024-04-16T19:24:47.463Z,29.5832
2024-04-16T19:34:56.893Z,36.7898
2024-04-16T19:45:06.082Z,34.6470
2024-04-16T19:55:16.132Z,34.1339
2024-04-16T20:05:25.859Z,33.9791
2024-04-16T20:15:35.672Z,33.8461
2024-04-16T20:25:45.221Z,33.7814
2024-04-16T20:35:56.042Z,33.7257
2024-04-16T20:46:05.402Z,33.6634
2024-04-16T20:56:14.748Z,33.6077
2024-04-16T21:06:24.144Z,33.4700
2024-04-16T21:16:33.435Z,33.4009
2024-04-16T21:26:42.446Z,33.3573
2024-04-16T21:36:51.807Z,33.3107
2024-04-16T21:47:01.405Z,33.3032
2024-04-16T21:57:11.046Z,33.2591
2024-04-16T22:07:20.430Z,33.2025
2024-04-16T22:17:29.882Z,33.1427
2024-04-16T22:27:40.632Z,33.0645
2024-04-16T22:37:50.359Z,32.9618
2024-04-16T22:48:00.003Z,32.7636
2024-04-16T22:58:09.835Z,31.2784
2024-04-16T23:08:19.041Z,30.7934
2024-04-16T23:18:28.434Z,29.7434
2024-04-16T23:28:37.695Z,29.2561
2024-04-16T23:38:46.776Z,28.9716
2024-04-16T23:48:56.453Z,28.7773
2024-04-16T23:59:05.522Z,28.6320
